createdAt,value
2017-04-18T00:00:03.636Z,942.5
2017-04-18T00:01:11.774Z,942.5
2017-04-18T00:02:19.852Z,942.5
2017-04-18T00:03:27.897Z,942.5
2017-04-18T00:04:35.981Z,942.5
2017-04-18T00:05:44.072Z,942.5
2017-04-18T00:06:52.334Z,942.5
2017-04-18T00:08:00.250Z,942.5
2017-04-18T00:09:08.336Z,942.5
2017-04-18T00:10:16.418Z,942.5
2017-04-18T00:11:24.505Z,942.5
2017-04-18T00:12:33.103Z,942.4
2017-04-18T00:13:40.681Z,942.4
2017-04-18T00:14:48.764Z,942.4
2017-04-18T00:15:56.855Z,942.4
2017-04-18T00:17:04.942Z,942.4
2017-04-18T00:18:13.253Z,942.4
2017-04-18T00:19:21.114Z,942.4
2017-04-18T00:20:29.202Z,942.4
2017-04-18T00:21:37.289Z,942.3
2017-04-18T00:22:45.500Z,942.3
2017-04-18T00:23:53.980Z,942.3
2017-04-18T00:25:01.561Z,942.3
2017-04-18T00:26:09.649Z,942.3
2017-04-18T00:27:17.736Z,942.3
2017-04-18T00:28:26.014Z,942.3
2017-04-18T00:29:33.973Z,942.2
2017-04-18T00:30:41.999Z,942.2
2017-04-18T00:31:50.089Z,942.2
2017-04-18T00:32:58.177Z,942.2
2017-04-18T00:34:06.265Z,942.2
2017-04-18T00:35:14.477Z,942.2
2017-04-18T00:36:22.442Z,942.2
2017-04-18T00:37:30.532Z,942.2
2017-04-18T00:38:39.127Z,942.2
2017-04-18T00:39:46.861Z,942.2
2017-04-18T00:40:54.874Z,942.2
2017-04-18T00:42:02.874Z,942.2
2017-04-18T00:43:10.965Z,942.2
2017-04-18T00:44:19.053Z,942.2
2017-04-18T00:45:27.144Z,942.2
2017-04-18T00:46:35.353Z,942.2
2017-04-18T00:47:43.325Z,942.1
2017-04-18T00:48:51.411Z,942.1
2017-04-18T00:49:59.619Z,942.1
2017-04-18T00:51:07.699Z,942.0
2017-04-18T00:52:15.726Z,942.0
2017-04-18T00:53:23.756Z,942.0
2017-04-18T00:54:32.350Z,941.9
2017-04-18T00:55:39.933Z,942.0
2017-04-18T00:56:48.053Z,942.0
2017-04-18T00:57:56.234Z,942.0
2017-04-18T00:59:04.207Z,942.0
2017-04-18T01:00:12.289Z,942.1
2017-04-18T01:01:20.523Z,942.1
2017-04-18T01:02:28.461Z,942.1
2017-04-18T01:03:36.611Z,942.1
2017-04-18T01:04:44.640Z,942.1
2017-04-18T01:05:52.724Z,942.1
2017-04-18T01:07:00.813Z,942.1
2017-04-18T01:08:08.901Z,942.1
2017-04-18T01:09:17.502Z,942.1
2017-04-18T01:10:25.193Z,942.2
2017-04-18T01:11:33.164Z,942.1
2017-04-18T01:12:41.253Z,942.1
2017-04-18T01:13:49.332Z,942.1
2017-04-18T01:14:57.479Z,942.1
2017-04-18T01:16:05.510Z,942.1
2017-04-18T01:17:14.099Z,942.1
2017-04-18T01:18:21.686Z,942.1
2017-04-18T01:19:29.776Z,942.0
2017-04-18T01:20:37.981Z,942.0
2017-04-18T01:21:45.946Z,942.0
2017-04-18T01:22:54.036Z,942.0
2017-04-18T01:24:02.125Z,942.0
2017-04-18T01:25:10.209Z,942.0
2017-04-18T01:26:18.796Z,942.0
2017-04-18T01:27:26.547Z,942.0
2017-04-18T01:28:34.483Z,942.0
2017-04-18T01:29:42.553Z,942.0
2017-04-18T01:30:50.643Z,941.9
2017-04-18T01:31:58.787Z,941.9
2017-04-18T01:33:06.840Z,941.9
2017-04-18T01:34:14.924Z,941.9
2017-04-18T01:35:22.992Z,941.9
2017-04-18T01:36:31.082Z,941.9
2017-04-18T01:37:39.378Z,941.9
2017-04-18T01:38:47.439Z,941.9
2017-04-18T01:39:55.341Z,941.9
2017-04-18T01:41:03.429Z,941.9
2017-04-18T01:42:12.022Z,941.9
2017-04-18T01:43:19.660Z,941.8
2017-04-18T01:44:27.729Z,941.9
2017-04-18T01:45:35.776Z,941.8
2017-04-18T01:46:43.869Z,941.9
2017-04-18T01:47:51.954Z,941.8
2017-04-18T01:49:00.155Z,941.8
2017-04-18T01:50:08.126Z,941.8
2017-04-18T01:51:16.212Z,941.8
2017-04-18T01:52:24.303Z,941.8
2017-04-18T01:53:32.383Z,941.8
2017-04-18T01:54:40.555Z,941.8
2017-04-18T01:55:48.572Z,941.8
2017-04-18T01:56:56.648Z,941.8
2017-04-18T01:58:05.245Z,941.8
2017-04-18T01:59:12.825Z,941.8
2017-04-18T02:00:21.152Z,941.8
2017-04-18T02:01:28.998Z,941.9
2017-04-18T02:02:37.087Z,941.8
2017-04-18T02:03:45.174Z,941.8
2017-04-18T02:04:53.259Z,941.8
2017-04-18T02:06:01.406Z,941.8
2017-04-18T02:07:09.432Z,941.8
2017-04-18T02:08:17.517Z,941.8
2017-04-18T02:09:25.601Z,941.8
2017-04-18T02:10:33.802Z,941.8
2017-04-18T02:11:41.905Z,941.9
2017-04-18T02:12:49.863Z,941.9
2017-04-18T02:13:58.458Z,941.9
2017-04-18T02:15:06.039Z,941.9
2017-04-18T02:16:14.125Z,941.9
2017-04-18T02:17:22.265Z,941.9
2017-04-18T02:18:30.305Z,941.9
2017-04-18T02:19:38.390Z,941.9
2017-04-18T02:20:46.473Z,941.9
2017-04-18T02:21:54.622Z,941.8
2017-04-18T02:23:02.710Z,941.9
2017-04-18T02:24:10.739Z,941.9
2017-04-18T02:25:18.830Z,941.9
2017-04-18T02:26:27.095Z,941.9
2017-04-18T02:27:35.010Z,941.9
2017-04-18T02:28:43.147Z,941.9
2017-04-18T02:29:51.684Z,941.9
2017-04-18T02:30:59.267Z,941.9
2017-04-18T02:32:07.353Z,942.0
2017-04-18T02:33:15.438Z,942.0
2017-04-18T02:34:23.649Z,941.9
2017-04-18T02:35:31.616Z,941.9
2017-04-18T02:36:39.795Z,941.9
2017-04-18T02:37:47.868Z,941.9
2017-04-18T02:38:55.885Z,941.9
2017-04-18T02:40:04.024Z,941.9
2017-04-18T02:41:12.053Z,941.9
2017-04-18T02:42:20.237Z,941.9
2017-04-18T02:43:28.232Z,942.0
2017-04-18T02:44:36.317Z,942.0
2017-04-18T02:45:44.465Z,942.0
2017-04-18T02:46:52.494Z,942.0
2017-04-18T02:48:00.603Z,942.0
2017-04-18T02:49:08.668Z,942.0
2017-04-18T02:50:16.755Z,941.9
2017-04-18T02:51:25.344Z,941.9
2017-04-18T02:52:32.924Z,941.9
2017-04-18T02:53:41.015Z,941.9
2017-04-18T02:54:49.100Z,941.9
2017-04-18T02:55:57.183Z,941.9
2017-04-18T02:57:05.780Z,942.0
2017-04-18T02:58:13.366Z,942.0
2017-04-18T02:59:21.479Z,942.0
2017-04-18T03:00:29.535Z,942.0
2017-04-18T03:01:37.744Z,942.0
2017-04-18T03:02:45.766Z,942.0
2017-04-18T03:03:53.798Z,942.0
2017-04-18T03:05:01.881Z,942.0
2017-04-18T03:06:09.971Z,942.0
2017-04-18T03:07:18.057Z,942.0
2017-04-18T03:08:26.647Z,942.0
2017-04-18T03:09:34.233Z,942.0
2017-04-18T03:10:42.321Z,942.0
2017-04-18T03:11:50.405Z,942.0
2017-04-18T03:12:58.494Z,942.0
2017-04-18T03:14:06.819Z,942.0
2017-04-18T03:15:14.667Z,942.0
2017-04-18T03:16:22.751Z,942.0
2017-04-18T03:17:30.960Z,942.0
2017-04-18T03:18:38.927Z,942.1
2017-04-18T03:19:47.068Z,942.1
2017-04-18T03:20:55.101Z,942.1
2017-04-18T03:22:03.189Z,942.1
2017-04-18T03:23:11.277Z,942.1
2017-04-18T03:24:19.366Z,942.1
2017-04-18T03:25:28.055Z,942.1
2017-04-18T03:26:35.548Z,942.1
2017-04-18T03:27:43.638Z,942.1
2017-04-18T03:28:51.721Z,942.1
2017-04-18T03:29:59.806Z,942.1
2017-04-18T03:31:07.948Z,942.1
2017-04-18T03:32:15.976Z,942.1
2017-04-18T03:33:24.187Z,942.1
2017-04-18T03:34:32.149Z,942.1
2017-04-18T03:35:40.237Z,942.1
2017-04-18T03:36:48.833Z,942.1
2017-04-18T03:37:56.415Z,942.1
2017-04-18T03:39:04.501Z,942.1
2017-04-18T03:40:12.760Z,942.1
2017-04-18T03:41:20.826Z,942.1
2017-04-18T03:42:28.820Z,942.1
2017-04-18T03:43:36.847Z,942.1
2017-04-18T03:44:44.935Z,942.1
2017-04-18T03:45:53.025Z,942.1
2017-04-18T03:47:01.110Z,942.1
2017-04-18T03:48:09.750Z,942.1
2017-04-18T03:49:17.342Z,942.1
2017-04-18T03:50:25.370Z,942.1
2017-04-18T03:51:33.537Z,942.1
2017-04-18T03:52:41.549Z,942.1
2017-04-18T03:53:49.757Z,942.1
2017-04-18T03:54:57.719Z,942.1
2017-04-18T03:56:05.809Z,942.1
2017-04-18T03:57:13.904Z,942.1
2017-04-18T03:58:21.984Z,942.2
2017-04-18T03:59:30.154Z,942.2
2017-04-18T04:00:38.166Z,942.2
2017-04-18T04:01:46.251Z,942.2
2017-04-18T04:02:54.337Z,942.2
2017-04-18T04:04:02.424Z,942.2
2017-04-18T04:05:11.018Z,942.2
2017-04-18T04:06:18.667Z,942.3
2017-04-18T04:07:26.850Z,942.2
2017-04-18T04:08:34.774Z,942.3
2017-04-18T04:09:42.859Z,942.2
2017-04-18T04:10:50.997Z,942.2
2017-04-18T04:11:59.030Z,942.2
2017-04-18T04:13:07.119Z,942.2
2017-04-18T04:14:15.206Z,942.2
2017-04-18T04:15:23.290Z,942.2
2017-04-18T04:16:31.882Z,942.2
2017-04-18T04:17:39.604Z,942.2
2017-04-18T04:18:47.548Z,942.2
2017-04-18T04:19:55.640Z,942.2
2017-04-18T04:21:03.846Z,942.3
2017-04-18T04:22:11.864Z,942.2
2017-04-18T04:23:19.974Z,942.2
2017-04-18T04:24:28.051Z,942.3
2017-04-18T04:25:36.075Z,942.3
2017-04-18T04:26:44.157Z,942.3
2017-04-18T04:27:52.754Z,942.3
2017-04-18T04:29:00.521Z,942.3
2017-04-18T04:30:08.421Z,942.3
2017-04-18T04:31:16.503Z,942.3
2017-04-18T04:32:24.594Z,942.3
2017-04-18T04:33:32.734Z,942.4
2017-04-18T04:34:40.824Z,942.4
2017-04-18T04:35:48.854Z,942.4
2017-04-18T04:36:57.447Z,942.4
2017-04-18T04:38:05.026Z,942.4
2017-04-18T04:39:13.237Z,942.3
2017-04-18T04:40:21.227Z,942.4
2017-04-18T04:41:29.284Z,942.3
2017-04-18T04:42:37.399Z,942.4
2017-04-18T04:43:45.457Z,942.3
2017-04-18T04:44:53.606Z,942.3
2017-04-18T04:46:01.670Z,942.4
2017-04-18T04:47:09.718Z,942.4
2017-04-18T04:48:17.807Z,942.4
2017-04-18T04:49:25.897Z,942.4
2017-04-18T04:50:34.672Z,942.4
2017-04-18T04:51:42.068Z,942.4
2017-04-18T04:52:50.208Z,942.4
2017-04-18T04:53:58.238Z,942.4
2017-04-18T04:55:06.326Z,942.4
2017-04-18T04:56:14.468Z,942.4
2017-04-18T04:57:22.494Z,942.4
2017-04-18T04:58:30.582Z,942.5
2017-04-18T04:59:38.678Z,942.4
2017-04-18T05:00:46.936Z,942.5
2017-04-18T05:01:55.508Z,942.5
2017-04-18T05:03:02.933Z,942.5
2017-04-18T05:04:11.018Z,942.5
2017-04-18T05:05:19.103Z,942.5
2017-04-18T05:06:27.185Z,942.5
2017-04-18T05:07:35.334Z,942.6
2017-04-18T05:08:43.868Z,942.5
2017-04-18T05:09:51.445Z,942.6
2017-04-18T05:10:59.534Z,942.6
2017-04-18T05:12:07.710Z,942.7
2017-04-18T05:13:15.771Z,942.7
2017-04-18T05:14:23.795Z,942.7
2017-04-18T05:15:31.884Z,942.7
2017-04-18T05:16:39.971Z,942.7
2017-04-18T05:17:48.053Z,942.7
2017-04-18T05:18:56.265Z,942.7
2017-04-18T05:20:04.230Z,942.8
2017-04-18T05:21:12.312Z,942.8
2017-04-18T05:22:20.494Z,942.8
2017-04-18T05:23:28.570Z,942.8
2017-04-18T05:24:38.293Z,942.9
2017-04-18T05:25:44.657Z,942.8
2017-04-18T05:26:52.753Z,942.8
2017-04-18T05:28:01.345Z,942.8
2017-04-18T05:29:08.917Z,942.9
2017-04-18T05:30:17.504Z,942.9
2017-04-18T05:31:25.091Z,942.9
2017-04-18T05:32:33.179Z,942.9
2017-04-18T05:33:41.263Z,942.9
2017-04-18T05:34:49.348Z,942.9
2017-04-18T05:35:57.491Z,942.9
2017-04-18T05:37:05.633Z,942.9
2017-04-18T05:38:13.603Z,942.9
2017-04-18T05:39:21.694Z,942.9
2017-04-18T05:40:30.291Z,943.0
2017-04-18T05:41:37.928Z,942.9
2017-04-18T05:42:45.959Z,943.0
2017-04-18T05:43:54.115Z,943.0
2017-04-18T05:45:02.187Z,943.0
2017-04-18T05:46:10.220Z,943.0
2017-04-18T05:47:18.586Z,943.0
2017-04-18T05:48:26.396Z,943.0
2017-04-18T05:49:34.477Z,943.0
2017-04-18T05:50:42.858Z,943.0
2017-04-18T05:51:51.338Z,943.0
2017-04-18T05:53:04.285Z,943.0
2017-04-18T05:54:07.380Z,943.1
2017-04-18T05:55:14.918Z,943.1
2017-04-18T05:56:23.504Z,943.1
2017-04-18T05:57:31.172Z,943.1
2017-04-18T05:58:40.679Z,943.1
2017-04-18T05:59:47.765Z,943.1
2017-04-18T06:00:55.856Z,943.1
2017-04-18T06:02:03.528Z,943.1
2017-04-18T06:03:11.520Z,943.2
2017-04-18T06:04:20.509Z,943.2
2017-04-18T06:05:27.691Z,943.2
2017-04-18T06:06:35.779Z,943.2
2017-04-18T06:07:43.864Z,943.2
2017-04-18T06:08:52.596Z,943.2
2017-04-18T06:10:00.466Z,943.2
2017-04-18T06:11:08.120Z,943.2
2017-04-18T06:12:16.327Z,943.3
2017-04-18T06:13:24.288Z,943.3
2017-04-18T06:14:32.377Z,943.2
2017-04-18T06:15:41.151Z,943.3
2017-04-18T06:16:48.553Z,943.3
2017-04-18T06:17:56.634Z,943.3
2017-04-18T06:19:04.718Z,943.3
2017-04-18T06:20:12.800Z,943.4
2017-04-18T06:21:21.306Z,943.3
2017-04-18T06:22:28.979Z,943.3
2017-04-18T06:23:37.554Z,943.3
2017-04-18T06:24:45.525Z,943.3
2017-04-18T06:25:53.263Z,943.3
2017-04-18T06:27:02.037Z,943.3
2017-04-18T06:28:09.529Z,943.4
2017-04-18T06:29:17.491Z,943.4
2017-04-18T06:30:25.653Z,943.3
2017-04-18T06:31:33.662Z,943.3
2017-04-18T06:32:41.802Z,943.3
2017-04-18T06:33:49.837Z,943.3
2017-04-18T06:34:57.924Z,943.3
2017-04-18T06:36:06.003Z,943.3
2017-04-18T06:37:14.101Z,943.3
2017-04-18T06:38:22.300Z,943.3
2017-04-18T06:39:30.266Z,943.3
2017-04-18T06:40:38.352Z,943.3
2017-04-18T06:41:46.612Z,943.3
2017-04-18T06:42:54.522Z,943.3
2017-04-18T06:44:03.253Z,943.3
2017-04-18T06:45:10.688Z,943.3
2017-04-18T06:46:18.780Z,943.3
2017-04-18T06:47:26.902Z,943.3
2017-04-18T06:48:34.970Z,943.3
2017-04-18T06:49:43.158Z,943.4
2017-04-18T06:50:51.152Z,943.4
2017-04-18T06:51:59.224Z,943.3
2017-04-18T06:53:07.294Z,943.4
2017-04-18T06:54:15.383Z,943.4
2017-04-18T06:55:23.970Z,943.4
2017-04-18T06:56:31.554Z,943.4
2017-04-18T06:57:39.641Z,943.5
2017-04-18T06:58:47.811Z,943.4
2017-04-18T06:59:55.870Z,943.5
2017-04-18T07:01:03.955Z,943.5
2017-04-18T07:02:11.987Z,943.5
2017-04-18T07:03:20.075Z,943.5
2017-04-18T07:04:28.157Z,943.4
2017-04-18T07:05:36.255Z,943.5
2017-04-18T07:06:44.836Z,943.5
2017-04-18T07:07:52.521Z,943.5
2017-04-18T07:09:00.512Z,943.5
2017-04-18T07:10:08.692Z,943.5
2017-04-18T07:11:16.669Z,943.5
2017-04-18T07:12:25.276Z,943.5
2017-04-18T07:13:32.846Z,943.5
2017-04-18T07:14:40.931Z,943.5
2017-04-18T07:15:49.435Z,943.5
2017-04-18T07:16:57.105Z,943.5
2017-04-18T07:18:05.308Z,943.6
2017-04-18T07:19:13.487Z,943.7
2017-04-18T07:20:21.356Z,943.7
2017-04-18T07:21:29.445Z,943.6
2017-04-18T07:22:37.533Z,943.7
2017-04-18T07:23:45.671Z,943.7
2017-04-18T07:24:54.178Z,943.6
2017-04-18T07:26:01.864Z,943.7
2017-04-18T07:27:09.879Z,943.7
2017-04-18T07:28:17.963Z,943.7
2017-04-18T07:29:26.561Z,943.7
2017-04-18T07:30:34.148Z,943.7
2017-04-18T07:31:42.340Z,943.6
2017-04-18T07:32:50.313Z,943.7
2017-04-18T07:33:58.401Z,943.7
2017-04-18T07:35:06.554Z,943.7
2017-04-18T07:36:15.193Z,943.7
2017-04-18T07:37:22.656Z,943.7
2017-04-18T07:38:30.741Z,943.7
2017-04-18T07:39:39.011Z,943.6
2017-04-18T07:40:47.030Z,943.7
2017-04-18T07:41:55.165Z,943.7
2017-04-18T07:43:03.078Z,943.7
2017-04-18T07:44:11.166Z,943.7
2017-04-18T07:45:19.269Z,943.7
2017-04-18T07:46:27.966Z,943.7
2017-04-18T07:47:35.566Z,943.7
2017-04-18T07:48:43.548Z,943.7
2017-04-18T07:49:51.605Z,943.7
2017-04-18T07:50:59.696Z,943.7
2017-04-18T07:52:08.024Z,943.7
2017-04-18T07:53:15.861Z,943.8
2017-04-18T07:54:23.956Z,943.8
2017-04-18T07:55:32.037Z,943.8
2017-04-18T07:56:40.129Z,943.9
2017-04-18T07:57:48.719Z,943.8
2017-04-18T07:58:56.294Z,943.9
2017-04-18T08:00:04.381Z,943.9
2017-04-18T08:01:12.470Z,943.8
2017-04-18T08:02:20.742Z,943.9
2017-04-18T08:03:28.760Z,943.9
2017-04-18T08:04:36.729Z,943.9
2017-04-18T08:05:44.816Z,943.9
2017-04-18T08:06:52.897Z,943.9
2017-04-18T08:08:01.027Z,943.9
2017-04-18T08:09:09.617Z,943.9
2017-04-18T08:10:17.159Z,944.0
2017-04-18T08:11:25.244Z,943.9
2017-04-18T08:12:33.530Z,943.9
2017-04-18T08:13:41.616Z,944.0
2017-04-18T08:14:49.563Z,944.0
2017-04-18T08:15:57.599Z,944.0
2017-04-18T08:17:05.688Z,944.0
2017-04-18T08:18:13.776Z,944.1
2017-04-18T08:19:22.389Z,944.0
2017-04-18T08:20:30.001Z,944.0
2017-04-18T08:21:38.034Z,944.0
2017-04-18T08:22:46.121Z,944.0
2017-04-18T08:23:54.312Z,944.0
2017-04-18T08:25:02.300Z,944.0
2017-04-18T08:26:10.442Z,944.1
2017-04-18T08:27:18.470Z,944.0
2017-04-18T08:28:26.558Z,944.1
2017-04-18T08:29:34.755Z,944.1
2017-04-18T08:30:42.815Z,944.2
2017-04-18T08:31:51.325Z,944.2
2017-04-18T08:32:58.905Z,944.2
2017-04-18T08:34:06.994Z,944.2
2017-04-18T08:35:15.135Z,944.2
2017-04-18T08:36:23.169Z,944.2
2017-04-18T08:37:31.312Z,944.3
2017-04-18T08:38:39.391Z,944.3
2017-04-18T08:39:48.063Z,944.4
2017-04-18T08:40:55.571Z,944.3
2017-04-18T08:42:03.701Z,944.4
2017-04-18T08:43:12.182Z,944.5
2017-04-18T08:44:19.767Z,944.5
2017-04-18T08:45:28.027Z,944.5
2017-04-18T08:46:35.938Z,944.5
2017-04-18T08:47:44.031Z,944.5
2017-04-18T08:48:52.619Z,944.6
2017-04-18T08:50:00.200Z,944.6
2017-04-18T08:51:08.354Z,944.5
2017-04-18T08:52:16.370Z,944.6
2017-04-18T08:53:24.458Z,944.6
2017-04-18T08:54:32.594Z,944.6
2017-04-18T08:55:40.627Z,944.6
2017-04-18T08:56:48.832Z,944.6
2017-04-18T08:57:56.800Z,944.5
2017-04-18T08:59:04.884Z,944.5
2017-04-18T09:00:13.489Z,944.6
2017-04-18T09:01:21.061Z,944.6
2017-04-18T09:02:29.148Z,944.6
2017-04-18T09:03:37.241Z,944.6
2017-04-18T09:04:45.325Z,944.6
2017-04-18T09:05:53.466Z,944.6
2017-04-18T09:07:02.271Z,944.7
2017-04-18T09:08:09.883Z,944.7
2017-04-18T09:09:17.668Z,944.7
2017-04-18T09:10:25.750Z,944.8
2017-04-18T09:11:34.044Z,944.8
2017-04-18T09:12:42.052Z,944.8
2017-04-18T09:13:50.010Z,944.8
2017-04-18T09:14:58.095Z,944.8
2017-04-18T09:16:06.180Z,944.8
2017-04-18T09:17:14.771Z,944.8
2017-04-18T09:18:22.349Z,944.8
2017-04-18T09:19:30.440Z,944.8
2017-04-18T09:20:38.528Z,944.8
2017-04-18T09:21:46.610Z,944.9
2017-04-18T09:22:54.844Z,944.9
2017-04-18T09:24:02.791Z,944.9
2017-04-18T09:25:10.882Z,945.0
2017-04-18T09:26:18.953Z,945.0
2017-04-18T09:27:27.044Z,944.9
2017-04-18T09:28:35.631Z,945.0
2017-04-18T09:29:43.210Z,945.0
2017-04-18T09:30:51.300Z,945.0
2017-04-18T09:31:59.384Z,945.0
2017-04-18T09:33:07.470Z,945.0
2017-04-18T09:34:15.920Z,945.0
2017-04-18T09:35:23.647Z,945.1
2017-04-18T09:36:31.733Z,945.1
2017-04-18T09:37:39.975Z,945.1
2017-04-18T09:38:48.409Z,945.1
2017-04-18T09:39:56.052Z,945.1
2017-04-18T09:41:04.082Z,945.1
2017-04-18T09:42:12.165Z,945.1
2017-04-18T09:43:20.253Z,945.2
2017-04-18T09:44:28.472Z,945.2
2017-04-18T09:45:36.944Z,945.2
2017-04-18T09:46:44.509Z,945.2
2017-04-18T09:47:52.599Z,945.3
2017-04-18T09:49:00.685Z,945.2
2017-04-18T09:50:08.769Z,945.2
2017-04-18T09:51:16.914Z,945.3
2017-04-18T09:52:24.942Z,945.3
2017-04-18T09:53:33.026Z,945.3
2017-04-18T09:54:41.685Z,945.3
2017-04-18T09:55:49.204Z,945.3
2017-04-18T09:56:57.341Z,945.3
2017-04-18T09:58:05.367Z,945.3
2017-04-18T09:59:13.465Z,945.3
2017-04-18T10:00:21.643Z,945.3
2017-04-18T10:01:29.630Z,945.4
2017-04-18T10:02:37.787Z,945.3
2017-04-18T10:03:45.807Z,945.4
2017-04-18T10:04:53.903Z,945.4
2017-04-18T10:06:01.981Z,945.4
2017-04-18T10:07:10.063Z,945.4
2017-04-18T10:08:18.651Z,945.4
2017-04-18T10:09:26.229Z,945.4
2017-04-18T10:10:34.528Z,945.4
2017-04-18T10:11:42.524Z,945.5
2017-04-18T10:12:50.494Z,945.4
2017-04-18T10:13:58.745Z,945.4
2017-04-18T10:15:06.942Z,945.4
2017-04-18T10:16:14.751Z,945.4
2017-04-18T10:17:22.885Z,945.5
2017-04-18T10:18:31.559Z,945.5
2017-04-18T10:19:39.821Z,945.5
2017-04-18T10:20:47.090Z,945.5
2017-04-18T10:21:55.365Z,945.5
2017-04-18T10:23:03.369Z,945.5
2017-04-18T10:24:11.351Z,945.5
2017-04-18T10:25:19.493Z,945.5
2017-04-18T10:26:29.032Z,945.5
2017-04-18T10:27:35.876Z,945.5
2017-04-18T10:28:44.078Z,945.5
2017-04-18T10:29:51.782Z,945.6
2017-04-18T10:30:59.923Z,945.6
2017-04-18T10:32:08.066Z,945.6
2017-04-18T10:33:16.107Z,945.6
2017-04-18T10:34:24.142Z,945.6
2017-04-18T10:35:32.234Z,945.6
2017-04-18T10:36:40.383Z,945.6
2017-04-18T10:37:48.411Z,945.6
2017-04-18T10:38:56.511Z,945.6
2017-04-18T10:40:04.711Z,945.6
2017-04-18T10:41:12.800Z,945.6
